Time;durP1;ratioP1;P1;durP2;ratioP2;P2;SDS_P1;SDS_P2;PMS_P1;PMS_P2;Temp;Humidity;BMP_temperature;BMP_pressure;BME280_temperature;BME280_humidity;BME280_pressure;Samples;Min_cycle;Max_cycle;Signal;HPM_P1;HPM_P2
2023/04/01 00:00:29;;;;;;;0.43;0.43;;;10.50;99.90;;;;;;5093428;28;20533;-79
2023/04/01 00:02:55;;;;;;;0.50;0.50;;;10.50;99.90;;;;;;5093812;28;20115;-78
2023/04/01 00:05:21;;;;;;;0.30;0.30;;;10.60;99.90;;;;;;5093733;28;20404;-79
2023/04/01 00:07:46;;;;;;;0.40;0.40;;;10.60;99.90;;;;;;5093845;28;20498;-78
2023/04/01 00:10:13;;;;;;;0.40;0.40;;;10.50;99.90;;;;;;5092302;28;20088;-79
2023/04/01 00:12:39;;;;;;;0.35;0.35;;;10.60;99.90;;;;;;5094223;28;20088;-79
2023/04/01 00:15:07;;;;;;;0.50;0.50;;;10.60;99.90;;;;;;5093654;28;20047;-79
2023/04/01 00:17:33;;;;;;;0.40;0.40;;;10.60;99.90;;;;;;5093688;28;20119;-79
2023/04/01 00:20:00;;;;;;;0.30;0.30;;;10.60;99.90;;;;;;5092224;28;20067;-79
2023/04/01 00:22:26;;;;;;;0.40;0.40;;;10.60;99.90;;;;;;5092052;28;20403;-79
2023/04/01 00:24:53;;;;;;;0.50;0.50;;;10.50;99.90;;;;;;5092295;28;20083;-78
2023/04/01 00:27:19;;;;;;;0.40;0.40;;;10.60;99.90;;;;;;5092029;28;20043;-78
2023/04/01 00:29:47;;;;;;;0.40;0.40;;;10.50;99.90;;;;;;5093219;28;20479;-78
2023/04/01 00:32:13;;;;;;;0.40;0.40;;;10.50;99.90;;;;;;5093578;28;20129;-78
2023/04/01 00:34:39;;;;;;;0.38;0.38;;;10.40;99.90;;;;;;5093519;28;20044;-78
2023/04/01 00:37:05;;;;;;;0.40;0.40;;;10.50;99.90;;;;;;5093288;28;20109;-78
2023/04/01 00:39:32;;;;;;;0.40;0.40;;;10.60;99.90;;;;;;5093088;28;20048;-78
2023/04/01 00:41:59;;;;;;;0.40;0.40;;;10.60;99.90;;;;;;5093406;28;20040;-79
2023/04/01 00:44:28;;;;;;;0.50;0.50;;;10.50;99.90;;;;;;5094341;28;20032;-78
2023/04/01 00:46:54;;;;;;;0.40;0.40;;;10.40;99.90;;;;;;5097358;28;20036;-78
2023/04/01 00:49:25;;;;;;;0.50;0.50;;;10.50;99.90;;;;;;5097014;28;20396;-79
2023/04/01 00:51:54;;;;;;;0.40;0.40;;;10.50;99.90;;;;;;5097296;28;20035;-79
2023/04/01 00:54:24;;;;;;;0.50;0.50;;;10.40;99.90;;;;;;5096032;28;20407;-79
2023/04/01 00:56:56;;;;;;;0.50;0.50;;;10.40;99.90;;;;;;5097235;28;20396;-79
2023/04/01 00:59:29;;;;;;;0.50;0.50;;;10.40;99.90;;;;;;5096844;28;20480;-78
2023/04/01 01:01:58;;;;;;;0.40;0.40;;;10.50;99.90;;;;;;5095702;28;20032;-78
2023/04/01 01:04:32;;;;;;;0.50;0.50;;;10.50;99.90;;;;;;5097094;28;20032;-78
2023/04/01 01:07:42;;;;;;;0.50;0.50;;;10.40;99.90;;;;;;5097640;28;20068;-78
2023/04/01 01:10:35;;;;;;;0.50;0.50;;;10.50;99.90;;;;;;5097051;28;20048;-78
2023/04/01 01:13:03;;;;;;;0.50;0.50;;;10.40;99.90;;;;;;5096859;28;20039;-78
2023/04/01 01:15:46;;;;;;;0.50;0.50;;;10.30;99.90;;;;;;5096512;28;20042;-78
2023/04/01 01:18:20;;;;;;;0.50;0.50;;;10.40;99.90;;;;;;5097314;28;20039;-78
2023/04/01 01:21:11;;;;;;;0.50;0.50;;;10.50;99.90;;;;;;5095178;28;20087;-78
2023/04/01 01:24:22;;;;;;;0.40;0.40;;;10.50;99.90;;;;;;5096666;28;20043;-78
2023/04/01 01:27:10;;;;;;;0.50;0.50;;;10.50;99.90;;;;;;5095356;28;20036;-78
2023/04/01 01:29:54;;;;;;;0.45;0.45;;;10.40;99.90;;;;;;5096631;28;20040;-78
2023/04/01 01:32:55;;;;;;;0.43;0.43;;;10.50;99.90;;;;;;5096509;28;20043;-78
2023/04/01 01:35:26;;;;;;;0.40;0.40;;;10.40;99.90;;;;;;5094678;28;20052;-78
2023/04/01 01:38:03;;;;;;;0.50;0.50;;;10.40;99.90;;;;;;5096080;28;20048;-78
2023/04/01 01:40:31;;;;;;;0.40;0.40;;;10.40;99.90;;;;;;5096386;28;20044;-78
2023/04/01 01:43:03;;;;;;;0.35;0.35;;;10.40;99.90;;;;;;5096373;28;20075;-79
2023/04/01 01:45:31;;;;;;;0.40;0.40;;;10.40;99.90;;;;;;5096309;28;20035;-79
2023/04/01 01:48:00;;;;;;;0.40;0.40;;;10.30;99.90;;;;;;5096181;28;20119;-79
2023/04/01 01:50:26;;;;;;;0.50;0.50;;;10.40;99.90;;;;;;5096139;28;20154;-78
2023/04/01 01:53:01;;;;;;;0.40;0.40;;;10.40;99.90;;;;;;5095821;28;20069;-78
2023/04/01 01:55:33;;;;;;;0.32;0.32;;;10.30;99.90;;;;;;5093964;28;20048;-78
2023/04/01 01:58:04;;;;;;;0.50;0.50;;;10.40;99.90;;;;;;5094363;28;20140;-78
2023/04/01 02:00:31;;;;;;;0.40;0.40;;;10.40;99.90;;;;;;5095963;28;20046;-78
2023/04/01 02:02:58;;;;;;;0.40;0.40;;;10.30;99.90;;;;;;5095868;28;20048;-78
2023/04/01 02:05:26;;;;;;;0.38;0.38;;;10.30;99.90;;;;;;5095900;28;20089;-79
2023/04/01 02:08:05;;;;;;;0.50;0.50;;;10.30;99.90;;;;;;5095801;28;20032;-78
2023/04/01 02:10:35;;;;;;;0.55;0.55;;;10.30;99.90;;;;;;5096263;28;20066;-78
2023/04/01 02:13:06;;;;;;;0.40;0.40;;;10.20;99.90;;;;;;5095514;28;20079;-78
2023/04/01 02:15:37;;;;;;;0.40;0.40;;;10.30;99.90;;;;;;5095887;28;20066;-78
2023/04/01 02:18:04;;;;;;;0.40;0.40;;;10.20;99.90;;;;;;5077318;28;20047;-78
2023/04/01 02:20:30;;;;;;;0.40;0.40;;;10.10;99.90;;;;;;5095516;28;20036;-78
2023/04/01 02:22:59;;;;;;;0.40;0.40;;;10.20;99.90;;;;;;5095545;28;20122;-78
2023/04/01 02:25:33;;;;;;;0.45;0.45;;;10.20;99.90;;;;;;5095563;28;20092;-78
2023/04/01 02:28:00;;;;;;;0.40;0.40;;;10.20;99.90;;;;;;5093992;28;20036;-78
2023/04/01 02:30:29;;;;;;;0.50;0.50;;;10.10;99.90;;;;;;5095466;28;20040;-79
2023/04/01 02:32:56;;;;;;;0.45;0.45;;;10.10;99.90;;;;;;5094103;28;20080;-78
2023/04/01 02:35:22;;;;;;;0.30;0.30;;;10.10;99.90;;;;;;5093742;28;20046;-78
2023/04/01 02:37:50;;;;;;;0.40;0.40;;;10.10;99.90;;;;;;5076702;28;20052;-78
2023/04/01 02:40:17;;;;;;;0.40;0.40;;;10.20;99.90;;;;;;5095353;28;20052;-79
2023/04/01 02:42:42;;;;;;;0.50;0.50;;;10.20;99.90;;;;;;5095140;28;20044;-78
2023/04/01 02:45:09;;;;;;;0.40;0.40;;;10.30;99.90;;;;;;5095095;28;20043;-78
2023/04/01 02:47:35;;;;;;;0.40;0.40;;;10.20;99.90;;;;;;5095445;28;20055;-78
2023/04/01 02:50:00;;;;;;;0.50;0.50;;;10.20;99.90;;;;;;5095009;28;20044;-78
2023/04/01 02:52:27;;;;;;;0.40;0.40;;;10.20;99.90;;;;;;5095010;28;20460;-78
2023/04/01 02:54:54;;;;;;;0.50;0.50;;;10.20;99.90;;;;;;5094955;28;20047;-78
2023/04/01 02:57:19;;;;;;;0.52;0.52;;;10.20;99.90;;;;;;5094097;28;20044;-78
2023/04/01 02:59:45;;;;;;;0.50;0.50;;;10.20;99.90;;;;;;5094770;28;20093;-78
2023/04/01 03:02:11;;;;;;;0.50;0.50;;;10.30;99.90;;;;;;5093207;28;20043;-79
2023/04/01 03:04:36;;;;;;;0.52;0.45;;;10.30;99.90;;;;;;5093201;28;20083;-79
2023/04/01 03:07:02;;;;;;;0.40;0.40;;;10.20;99.90;;;;;;5094486;28;20047;-79
2023/04/01 03:09:28;;;;;;;0.50;0.50;;;10.20;99.90;;;;;;5095411;28;20051;-79
2023/04/01 03:11:54;;;;;;;0.55;0.52;;;10.30;99.90;;;;;;5094598;28;20044;-79
2023/04/01 03:14:20;;;;;;;0.50;0.50;;;10.20;99.90;;;;;;5076097;28;20067;-79
2023/04/01 03:16:45;;;;;;;0.50;0.50;;;10.20;99.90;;;;;;5093016;28;20184;-79
2023/04/01 03:19:11;;;;;;;0.50;0.50;;;10.20;99.90;;;;;;5094415;28;20185;-79
2023/04/01 03:21:36;;;;;;;0.60;0.60;;;10.20;99.90;;;;;;5094143;28;20402;-79
2023/04/01 03:24:02;;;;;;;0.40;0.40;;;10.20;99.90;;;;;;5094456;28;20123;-79
2023/04/01 03:26:28;;;;;;;0.40;0.40;;;10.20;99.90;;;;;;5126804;27;20040;-78
2023/04/01 03:28:53;;;;;;;0.40;0.40;;;10.10;99.90;;;;;;5093489;28;20048;-78
2023/04/01 03:31:19;;;;;;;0.57;0.57;;;10.20;99.90;;;;;;5094173;28;20070;-78
2023/04/01 03:33:45;;;;;;;0.60;0.60;;;10.20;99.90;;;;;;5093892;28;20032;-78
2023/04/01 03:36:12;;;;;;;0.40;0.40;;;10.30;99.90;;;;;;5094012;28;20040;-78
2023/04/01 03:38:39;;;;;;;0.50;0.50;;;10.20;99.90;;;;;;5093768;28;20075;-78
2023/04/01 03:41:05;;;;;;;0.40;0.40;;;10.10;99.90;;;;;;5093990;28;20044;-78
2023/04/01 03:43:32;;;;;;;0.40;0.40;;;10.20;99.90;;;;;;5094116;28;20097;-78
2023/04/01 03:45:58;;;;;;;0.50;0.50;;;10.20;99.90;;;;;;5094111;28;20036;-78
2023/04/01 03:48:25;;;;;;;0.60;0.60;;;10.10;99.90;;;;;;5093995;28;20035;-79
2023/04/01 03:50:51;;;;;;;0.60;0.45;;;10.10;99.90;;;;;;5094015;28;20116;-78
2023/04/01 03:53:17;;;;;;;0.55;0.55;;;10.20;99.90;;;;;;5094064;28;20048;-78
2023/04/01 03:55:42;;;;;;;0.57;0.57;;;10.20;99.90;;;;;;5093941;28;20051;-78
2023/04/01 03:58:08;;;;;;;0.70;0.70;;;10.10;99.90;;;;;;5093872;28;20028;-78
2023/04/01 04:00:34;;;;;;;0.70;0.70;;;10.10;99.90;;;;;;5093740;28;20040;-79
2023/04/01 04:03:00;;;;;;;0.68;0.68;;;10.10;99.90;;;;;;5093916;28;20113;-79
2023/04/01 04:05:26;;;;;;;0.63;0.63;;;10.20;99.90;;;;;;5092266;28;20036;-79
2023/04/01 04:07:52;;;;;;;0.70;0.70;;;10.20;99.90;;;;;;5093441;28;20480;-78
2023/04/01 04:10:19;;;;;;;0.70;0.70;;;10.20;99.90;;;;;;5093754;28;20043;-78
2023/04/01 04:12:45;;;;;;;0.40;0.40;;;10.10;99.90;;;;;;5092438;28;20047;-78
2023/04/01 04:15:11;;;;;;;0.60;0.60;;;10.10;99.90;;;;;;5093665;28;20040;-78
2023/04/01 04:17:37;;;;;;;0.50;0.50;;;10.10;99.90;;;;;;5093650;28;20068;-78
2023/04/01 04:20:03;;;;;;;0.60;0.60;;;10.20;99.90;;;;;;5095830;28;20090;-78
2023/04/01 04:22:29;;;;;;;0.70;0.70;;;10.10;99.90;;;;;;5097619;28;20039;-78
2023/04/01 04:24:54;;;;;;;0.77;0.77;;;10.20;99.90;;;;;;5096399;28;20040;-78
2023/04/01 04:27:20;;;;;;;0.80;0.80;;;10.00;99.90;;;;;;5097763;28;20441;-78
2023/04/01 04:29:45;;;;;;;0.70;0.70;;;10.10;99.90;;;;;;5096482;28;20618;-78
2023/04/01 04:32:11;;;;;;;0.50;0.50;;;10.10;99.90;;;;;;5097782;28;20396;-78
2023/04/01 04:34:37;;;;;;;0.60;0.60;;;10.20;99.90;;;;;;5097665;28;20055;-78
2023/04/01 04:37:03;;;;;;;0.50;0.50;;;10.00;99.90;;;;;;5097461;28;20060;-78
2023/04/01 04:39:29;;;;;;;0.77;0.77;;;10.10;99.90;;;;;;5097166;28;20484;-78
2023/04/01 04:41:55;;;;;;;0.60;0.60;;;10.10;99.90;;;;;;5096752;28;20130;-78
2023/04/01 04:44:20;;;;;;;0.50;0.50;;;10.20;99.90;;;;;;5097174;28;20175;-78
2023/04/01 04:46:46;;;;;;;0.57;0.57;;;10.20;99.90;;;;;;5095795;28;20048;-78
2023/04/01 04:49:12;;;;;;;0.50;0.50;;;10.10;99.90;;;;;;5096155;28;20071;-78
2023/04/01 04:51:38;;;;;;;0.70;0.70;;;10.10;99.90;;;;;;5097355;28;20115;-78
2023/04/01 04:54:05;;;;;;;0.55;0.55;;;10.10;99.90;;;;;;5097000;28;20128;-78
2023/04/01 04:56:31;;;;;;;0.40;0.40;;;10.20;99.90;;;;;;5097176;28;20044;-78
2023/04/01 04:58:57;;;;;;;0.50;0.50;;;10.10;99.90;;;;;;5097142;28;20093;-78
2023/04/01 05:01:23;;;;;;;0.70;0.70;;;10.00;99.90;;;;;;5097112;28;20048;-78
2023/04/01 05:03:49;;;;;;;0.60;0.60;;;10.10;99.90;;;;;;5097093;28;20048;-78
2023/04/01 05:06:16;;;;;;;0.60;0.60;;;10.10;99.90;;;;;;5097107;28;20036;-78
2023/04/01 05:08:43;;;;;;;0.60;0.60;;;10.10;99.90;;;;;;5097023;28;20116;-78
2023/04/01 05:11:12;;;;;;;0.88;0.70;;;10.00;99.90;;;;;;5096751;28;20472;-78
2023/04/01 05:13:38;;;;;;;0.50;0.50;;;10.00;99.90;;;;;;5096880;28;20123;-78
2023/04/01 05:16:07;;;;;;;0.50;0.50;;;10.10;99.90;;;;;;5096853;28;20115;-78
2023/04/01 05:18:32;;;;;;;0.50;0.50;;;10.10;99.90;;;;;;5095480;28;20075;-78
2023/04/01 05:20:58;;;;;;;0.50;0.50;;;10.00;99.90;;;;;;5095126;28;20080;-78
2023/04/01 05:23:24;;;;;;;0.50;0.50;;;10.10;99.90;;;;;;5096329;28;20028;-78
2023/04/01 05:25:52;;;;;;;0.50;0.50;;;10.10;99.90;;;;;;5095297;28;20109;-78
2023/04/01 05:28:18;;;;;;;0.50;0.50;;;9.90;99.90;;;;;;5096273;28;20036;-78
2023/04/01 05:30:44;;;;;;;0.43;0.43;;;10.00;99.90;;;;;;5094932;28;20048;-78
2023/04/01 05:33:11;;;;;;;0.40;0.40;;;10.00;99.90;;;;;;5094980;28;20043;-78
2023/04/01 05:35:37;;;;;;;0.45;0.45;;;9.90;99.90;;;;;;5096487;28;20046;-78
2023/04/01 05:38:03;;;;;;;0.40;0.40;;;10.00;99.90;;;;;;5094739;28;20044;-78
2023/04/01 05:40:29;;;;;;;0.40;0.40;;;10.10;99.90;;;;;;5097063;28;20047;-78
2023/04/01 05:42:55;;;;;;;0.32;0.32;;;9.90;99.90;;;;;;5094751;28;20068;-78
2023/04/01 05:45:21;;;;;;;0.75;0.47;;;10.00;99.90;;;;;;5096345;28;20142;-78
2023/04/01 05:47:46;;;;;;;0.40;0.40;;;9.90;99.90;;;;;;5096283;28;20055;-79
2023/04/01 05:50:12;;;;;;;0.40;0.40;;;10.00;99.90;;;;;;5096141;28;20036;-78
2023/04/01 05:52:39;;;;;;;0.75;0.50;;;10.10;99.90;;;;;;5095834;28;20043;-78
2023/04/01 05:55:05;;;;;;;0.50;0.50;;;10.10;99.90;;;;;;5094867;28;20111;-78
2023/04/01 05:57:31;;;;;;;0.40;0.40;;;10.00;99.90;;;;;;5094805;28;20116;-79
2023/04/01 05:59:56;;;;;;;0.50;0.50;;;10.00;99.90;;;;;;5094665;28;20505;-78
2023/04/01 06:02:23;;;;;;;0.47;0.47;;;9.90;99.90;;;;;;5094390;28;20507;-78
2023/04/01 06:04:48;;;;;;;0.40;0.40;;;10.00;99.90;;;;;;5094363;28;20092;-78
2023/04/01 06:07:17;;;;;;;0.40;0.40;;;10.00;99.90;;;;;;5094373;28;20035;-78
2023/04/01 06:09:44;;;;;;;0.50;0.50;;;9.90;99.90;;;;;;5095611;28;20376;-78
2023/04/01 06:12:18;;;;;;;0.50;0.50;;;10.00;99.90;;;;;;5095737;28;20402;-78
2023/04/01 06:15:13;;;;;;;0.60;0.60;;;10.00;99.90;;;;;;5094452;28;20047;-78
2023/04/01 06:18:02;;;;;;;0.43;0.43;;;10.00;99.90;;;;;;5094111;28;20047;-78
2023/04/01 06:21:00;;;;;;;0.60;0.60;;;10.10;99.90;;;;;;5095484;28;20055;-78
2023/04/01 06:23:50;;;;;;;0.65;0.65;;;10.10;99.90;;;;;;5092268;28;20048;-78
2023/04/01 06:26:44;;;;;;;0.47;0.47;;;10.20;99.90;;;;;;5095648;28;20051;-78
2023/04/01 06:29:40;;;;;;;0.55;0.55;;;10.10;99.90;;;;;;5094035;28;20055;-78
2023/04/01 06:32:20;;;;;;;0.57;0.57;;;10.20;99.90;;;;;;5095473;28;20044;-78
2023/04/01 06:35:04;;;;;;;0.50;0.50;;;10.20;99.90;;;;;;5077031;28;20169;-78
2023/04/01 06:38:14;;;;;;;0.60;0.60;;;10.30;99.90;;;;;;5095060;28;20056;-78
2023/04/01 06:40:57;;;;;;;0.50;0.50;;;10.30;99.90;;;;;;5086450;28;20048;-78
2023/04/01 06:43:37;;;;;;;0.50;0.50;;;10.40;99.90;;;;;;5094331;28;20138;-78
2023/04/01 06:46:32;;;;;;;0.55;0.55;;;10.40;99.90;;;;;;5095201;28;20040;-78
2023/04/01 06:49:15;;;;;;;0.30;0.30;;;10.40;99.90;;;;;;5089408;28;20048;-78
2023/04/01 06:52:10;;;;;;;0.40;0.40;;;10.40;99.90;;;;;;5055859;28;20049;-78
2023/04/01 06:54:39;;;;;;;0.50;0.50;;;10.40;99.90;;;;;;5055763;28;20059;-78
2023/04/01 06:57:27;;;;;;;0.50;0.50;;;10.50;99.90;;;;;;5055748;28;20420;-78
2023/04/01 06:59:58;;;;;;;0.60;0.60;;;10.60;99.90;;;;;;5072204;28;20072;-78
2023/04/01 07:02:47;;;;;;;0.50;0.50;;;10.60;99.90;;;;;;5072200;28;20481;-78
2023/04/01 07:05:14;;;;;;;0.60;0.60;;;10.70;99.90;;;;;;5055778;28;20047;-78
2023/04/01 07:07:55;;;;;;;0.50;0.50;;;10.60;99.90;;;;;;5072303;28;20519;-78
2023/04/01 07:10:40;;;;;;;0.60;0.60;;;10.60;99.90;;;;;;5072103;28;20531;-79
2023/04/01 07:13:20;;;;;;;0.50;0.50;;;10.70;99.90;;;;;;5055341;28;20095;-78
2023/04/01 07:16:04;;;;;;;1.10;1.10;;;10.60;99.90;;;;;;5071952;28;20071;-78
2023/04/01 07:18:42;;;;;;;1.00;1.00;;;10.70;99.90;;;;;;5071832;28;20041;-78
2023/04/01 07:21:35;;;;;;;0.70;0.70;;;10.80;99.90;;;;;;5071773;28;20083;-78
2023/04/01 07:24:15;;;;;;;0.60;0.60;;;10.80;99.90;;;;;;5055027;28;20079;-78
2023/04/01 07:26:41;;;;;;;;;;;10.80;99.90;;;;;;5090849;28;20504;-78
2023/04/01 07:29:12;;;;;;;0.40;0.40;;;10.90;99.90;;;;;;5094252;28;19971;-74
2023/04/01 07:32:07;;;;;;;0.50;0.50;;;10.80;99.90;;;;;;5094208;28;20051;-76
2023/04/01 07:34:42;;;;;;;0.40;0.40;;;10.80;99.90;;;;;;5094306;28;20119;-79
2023/04/01 07:37:29;;;;;;;0.40;0.40;;;11.00;99.90;;;;;;5092723;28;21144;-78
2023/04/01 07:40:16;;;;;;;0.50;0.50;;;11.10;99.90;;;;;;5094020;28;20044;-74
2023/04/01 07:43:00;;;;;;;0.38;0.38;;;11.00;99.90;;;;;;5092712;28;20036;-75
2023/04/01 07:45:43;;;;;;;0.40;0.40;;;11.00;99.90;;;;;;5093688;28;20081;-75
2023/04/01 07:48:28;;;;;;;0.40;0.40;;;11.10;99.90;;;;;;5092880;28;20161;-74
2023/04/01 07:50:59;;;;;;;0.40;0.40;;;11.20;99.90;;;;;;5093658;28;20127;-74
2023/04/01 07:53:37;;;;;;;0.50;0.50;;;11.20;99.90;;;;;;5093490;28;20047;-74
2023/04/01 07:56:10;;;;;;;0.47;0.47;;;11.20;99.90;;;;;;5092274;28;20127;-74
2023/04/01 07:58:39;;;;;;;0.47;0.47;;;11.20;99.90;;;;;;5093900;28;20039;-76
2023/04/01 08:01:46;;;;;;;0.40;0.40;;;11.20;99.90;;;;;;5093840;28;20075;-77
2023/04/01 08:04:33;;;;;;;0.30;0.30;;;11.30;99.90;;;;;;5114936;27;20055;-74
2023/04/01 08:07:23;;;;;;;0.40;0.40;;;11.20;99.90;;;;;;5075620;28;20050;-75
2023/04/01 08:09:58;;;;;;;0.38;0.38;;;11.30;99.90;;;;;;5092192;28;20073;-74
2023/04/01 08:12:30;;;;;;;0.30;0.30;;;11.40;99.90;;;;;;5093674;28;20032;-75
2023/04/01 08:15:09;;;;;;;0.30;0.30;;;11.40;99.90;;;;;;5093674;28;20135;-74
2023/04/01 08:17:45;;;;;;;0.30;0.30;;;11.40;99.90;;;;;;5092405;28;20492;-77
2023/04/01 08:20:19;;;;;;;0.20;0.20;;;11.20;99.90;;;;;;5093002;28;20048;-75
2023/04/01 08:22:52;;;;;;;0.20;0.20;;;11.30;99.90;;;;;;5093634;28;20075;-75
2023/04/01 08:25:24;;;;;;;0.30;0.30;;;11.30;99.90;;;;;;5126971;28;20511;-73
2023/04/01 08:28:23;;;;;;;0.40;0.40;;;11.20;99.90;;;;;;5092412;28;20072;-75
2023/04/01 08:30:55;;;;;;;0.30;0.30;;;11.10;99.90;;;;;;5092339;28;20075;-73
2023/04/01 08:33:24;;;;;;;0.38;0.38;;;11.20;99.90;;;;;;5093533;28;20054;-74
2023/04/01 08:36:11;;;;;;;0.40;0.40;;;11.30;99.90;;;;;;5093505;28;20101;-73
2023/04/01 08:38:40;;;;;;;0.50;0.50;;;11.30;99.90;;;;;;5091862;28;20509;-73
2023/04/01 08:41:27;;;;;;;0.50;0.50;;;11.30;99.90;;;;;;5091884;28;20047;-74
2023/04/01 08:44:17;;;;;;;0.40;0.40;;;11.40;99.90;;;;;;5071790;28;20562;-78
2023/04/01 08:47:09;;;;;;;0.47;0.47;;;11.40;99.90;;;;;;5092297;28;20043;-82
2023/04/01 08:49:44;;;;;;;0.50;0.50;;;11.30;99.90;;;;;;5092222;28;20043;-77
2023/04/01 08:52:27;;;;;;;0.50;0.50;;;11.40;99.90;;;;;;5091788;28;20040;-76
2023/04/01 08:55:02;;;;;;;0.40;0.40;;;11.50;99.90;;;;;;5091818;28;20075;-76
2023/04/01 08:58:13;;;;;;;0.40;0.40;;;11.40;99.90;;;;;;5092150;28;20032;-76
2023/04/01 09:01:08;;;;;;;0.40;0.40;;;11.50;99.90;;;;;;5089507;28;20056;-76
2023/04/01 09:03:33;;;;;;;0.40;0.40;;;11.30;99.90;;;;;;5091721;28;20047;-74
2023/04/01 09:06:11;;;;;;;0.40;0.40;;;11.40;99.90;;;;;;5093477;28;20039;-69
2023/04/01 09:09:05;;;;;;;0.50;0.50;;;11.40;99.90;;;;;;5097021;28;20112;-70
2023/04/01 09:11:38;;;;;;;0.50;0.50;;;11.30;99.90;;;;;;5096716;28;20499;-74
2023/04/01 09:14:29;;;;;;;0.50;0.50;;;11.30;99.90;;;;;;5095374;28;20047;-73
2023/04/01 09:17:37;;;;;;;0.68;0.50;;;11.30;99.90;;;;;;5096897;28;20119;-72
2023/04/01 09:20:36;;;;;;;0.63;0.63;;;11.40;99.90;;;;;;5114995;27;20048;-74
2023/04/01 09:23:04;;;;;;;0.70;0.70;;;11.40;99.90;;;;;;5078441;28;20088;-72
2023/04/01 09:25:55;;;;;;;0.60;0.60;;;11.40;99.90;;;;;;5095205;28;20036;-72
2023/04/01 09:28:29;;;;;;;0.65;0.65;;;11.50;99.90;;;;;;5096742;28;20040;-72
2023/04/01 09:31:14;;;;;;;0.60;0.60;;;11.40;99.90;;;;;;5095345;28;20044;-72
2023/04/01 09:34:03;;;;;;;0.60;0.60;;;11.50;99.90;;;;;;5096623;28;20043;-72
2023/04/01 09:36:50;;;;;;;0.60;0.60;;;11.60;99.90;;;;;;5084931;28;20509;-72
2023/04/01 09:39:33;;;;;;;0.63;0.63;;;11.60;99.90;;;;;;5096956;28;20101;-71
2023/04/01 09:42:15;;;;;;;0.70;0.70;;;11.70;99.90;;;;;;5078257;28;20404;-71
2023/04/01 09:45:13;;;;;;;0.57;0.57;;;11.80;99.90;;;;;;5096325;28;20037;-71
2023/04/01 09:48:17;;;;;;;0.68;0.68;;;11.70;99.90;;;;;;5096231;28;20040;-71
2023/04/01 09:51:05;;;;;;;0.55;0.55;;;11.80;99.90;;;;;;5094935;28;20048;-71
2023/04/01 09:53:56;;;;;;;0.50;0.50;;;11.80;99.90;;;;;;5096740;28;20032;-67
2023/04/01 09:56:53;;;;;;;0.60;0.60;;;11.80;99.90;;;;;;5094592;28;20055;-72
2023/04/01 09:59:24;;;;;;;0.60;0.60;;;12.00;99.90;;;;;;5094568;28;20120;-71
2023/04/01 10:02:23;;;;;;;0.80;0.80;;;11.90;99.90;;;;;;5096024;28;20040;-70
2023/04/01 10:04:58;;;;;;;0.80;0.80;;;12.00;99.90;;;;;;5096021;28;20066;-70
2023/04/01 10:08:11;;;;;;;0.80;0.80;;;11.90;99.90;;;;;;5095943;28;20040;-71
2023/04/01 10:11:09;;;;;;;0.90;0.90;;;11.90;99.90;;;;;;5094291;28;20082;-71
2023/04/01 10:13:52;;;;;;;0.90;0.90;;;12.00;99.90;;;;;;5056661;28;20398;-70
2023/04/01 10:16:22;;;;;;;0.80;0.80;;;12.00;99.90;;;;;;5072905;28;20041;-71
2023/04/01 10:18:56;;;;;;;0.60;0.60;;;12.00;99.90;;;;;;5055921;28;20123;-70
2023/04/01 10:21:52;;;;;;;0.60;0.60;;;12.10;99.90;;;;;;5056261;28;20041;-71
2023/04/01 10:24:57;;;;;;;0.50;0.50;;;12.10;99.90;;;;;;5056267;28;20053;-71
2023/04/01 10:27:25;;;;;;;0.60;0.60;;;12.20;99.90;;;;;;5056111;28;20040;-71
2023/04/01 10:30:25;;;;;;;0.50;0.50;;;12.20;99.90;;;;;;5056020;28;20068;-71
2023/04/01 10:33:15;;;;;;;0.57;0.57;;;12.40;99.90;;;;;;5039403;28;20127;-70
2023/04/01 10:36:25;;;;;;;0.50;0.50;;;12.30;99.90;;;;;;5072883;28;20136;-71
2023/04/01 10:39:18;;;;;;;0.40;0.40;;;12.30;99.90;;;;;;5072515;28;20044;-71
2023/04/01 10:42:37;;;;;;;0.50;0.50;;;12.40;99.90;;;;;;5072691;28;20513;-71
2023/04/01 10:45:21;;;;;;;0.50;0.50;;;12.50;99.90;;;;;;4993253;28;20045;-71
2023/04/01 10:48:05;;;;;;;0.60;0.60;;;12.20;99.90;;;;;;4993633;28;20046;-72
2023/04/01 10:50:52;;;;;;;0.60;0.60;;;12.10;99.90;;;;;;5004903;28;20085;-73
2023/04/01 10:53:30;;;;;;;0.40;0.40;;;12.10;99.90;;;;;;5032553;28;20516;-72
2023/04/01 10:56:17;;;;;;;0.50;0.50;;;11.90;99.90;;;;;;5032431;28;20042;-70
2023/04/01 10:59:03;;;;;;;0.50;0.50;;;11.80;99.90;;;;;;5016813;28;20054;-70
2023/04/01 11:01:50;;;;;;;0.60;0.60;;;11.80;99.90;;;;;;5032331;28;20084;-69
2023/04/01 11:04:18;;;;;;;0.50;0.50;;;11.70;99.90;;;;;;5015851;28;20135;-72
2023/04/01 11:07:21;;;;;;;0.70;0.70;;;11.70;99.90;;;;;;5015829;28;20605;-73
2023/04/01 11:10:05;;;;;;;0.77;0.50;;;11.70;99.90;;;;;;5032217;28;20049;-76
2023/04/01 11:13:01;;;;;;;0.50;0.50;;;11.60;99.90;;;;;;5015671;28;20082;-73
2023/04/01 11:16:08;;;;;;;0.70;0.70;;;11.70;99.90;;;;;;5015731;28;20049;-74
2023/04/01 11:18:49;;;;;;;0.60;0.60;;;11.50;99.90;;;;;;5015088;28;20060;-73
2023/04/01 11:21:34;;;;;;;0.50;0.50;;;11.60;99.90;;;;;;5093014;28;20507;-73
2023/04/01 11:24:15;;;;;;;0.40;0.40;;;11.50;99.90;;;;;;5076270;28;20493;-73
2023/04/01 11:26:41;;;;;;;0.50;0.50;;;11.50;99.90;;;;;;5093306;28;20048;-72
2023/04/01 11:29:23;;;;;;;0.40;0.40;;;11.50;99.90;;;;;;5092621;28;20040;-72
2023/04/01 11:32:00;;;;;;;0.40;0.40;;;11.50;99.90;;;;;;5094343;28;20047;-71
2023/04/01 11:35:09;;;;;;;0.30;0.30;;;11.50;99.90;;;;;;5093005;28;20099;-71
2023/04/01 11:37:54;;;;;;;0.43;0.43;;;11.50;99.90;;;;;;5075613;28;20048;-71
2023/04/01 11:40:48;;;;;;;0.43;0.40;;;11.50;99.90;;;;;;5092492;28;20048;-72
2023/04/01 11:43:36;;;;;;;0.40;0.40;;;11.60;99.90;;;;;;5092804;28;20126;-72
2023/04/01 11:46:11;;;;;;;0.40;0.40;;;11.40;99.90;;;;;;5092873;28;20048;-71
2023/04/01 11:49:11;;;;;;;0.40;0.40;;;11.60;99.90;;;;;;5094120;28;20122;-72
2023/04/01 11:52:20;;;;;;;0.40;0.40;;;11.50;99.90;;;;;;5092430;28;20590;-72
2023/04/01 11:55:13;;;;;;;0.40;0.40;;;11.50;99.90;;;;;;5093140;28;20472;-73
2023/04/01 11:58:05;;;;;;;0.40;0.40;;;11.40;99.90;;;;;;5092666;28;20392;-72
2023/04/01 12:00:48;;;;;;;0.40;0.40;;;11.40;99.90;;;;;;5093835;28;20044;-71
2023/04/01 12:03:28;;;;;;;0.40;0.40;;;11.30;99.90;;;;;;5092290;28;20144;-71
2023/04/01 12:06:27;;;;;;;0.30;0.30;;;11.30;99.90;;;;;;5092249;28;20036;-74
2023/04/01 12:09:17;;;;;;;0.50;0.50;;;11.30;99.90;;;;;;5075635;28;20278;-73
2023/04/01 12:12:05;;;;;;;0.40;0.40;;;11.20;99.90;;;;;;5092489;28;20040;-73
2023/04/01 12:15:08;;;;;;;0.40;0.40;;;11.20;99.90;;;;;;5092245;28;20048;-71
2023/04/01 12:17:47;;;;;;;0.30;0.30;;;11.20;99.90;;;;;;5093584;28;20044;-77
2023/04/01 12:20:34;;;;;;;0.30;0.30;;;11.20;99.90;;;;;;5092251;28;20177;-78
2023/04/01 12:23:33;;;;;;;0.40;0.40;;;11.20;99.90;;;;;;5092027;28;20341;-79
2023/04/01 12:26:21;;;;;;;0.40;0.40;;;11.20;99.90;;;;;;5075118;28;20040;-81
2023/04/01 12:29:09;;;;;;;0.40;0.40;;;11.20;99.90;;;;;;5075132;28;20048;-81
2023/04/01 12:32:04;;;;;;;0.45;0.40;;;11.20;99.90;;;;;;5092047;28;20047;-81
2023/04/01 12:34:49;;;;;;;0.40;0.40;;;11.20;99.90;;;;;;5075321;28;20044;-81
2023/04/01 12:37:29;;;;;;;0.40;0.40;;;11.10;99.90;;;;;;5075159;28;20055;-81
2023/04/01 12:40:04;;;;;;;0.35;0.35;;;11.10;99.90;;;;;;5092389;28;20037;-81
2023/04/01 12:42:48;;;;;;;0.40;0.40;;;11.00;99.90;;;;;;5096043;28;20032;-82
2023/04/01 12:45:33;;;;;;;0.60;0.60;;;11.00;99.90;;;;;;5096016;28;20036;-74
2023/04/01 12:48:17;;;;;;;0.47;0.47;;;11.00;99.90;;;;;;5096813;28;20039;-80
2023/04/01 12:51:08;;;;;;;0.50;0.50;;;10.90;99.90;;;;;;5095816;28;20400;-81
2023/04/01 12:53:53;;;;;;;0.73;0.40;;;10.80;99.90;;;;;;5095725;28;20097;-80
2023/04/01 12:56:40;;;;;;;0.50;0.50;;;10.90;99.90;;;;;;5079135;28;20460;-80
2023/04/01 12:59:36;;;;;;;0.50;0.50;;;10.90;99.90;;;;;;5079033;28;20044;-80
2023/04/01 13:02:21;;;;;;;0.40;0.40;;;10.90;99.90;;;;;;5078716;28;20566;-80
2023/04/01 13:05:15;;;;;;;0.40;0.40;;;10.90;99.90;;;;;;5095526;28;20040;-81
2023/04/01 13:07:58;;;;;;;0.50;0.50;;;10.90;99.90;;;;;;5095489;28;20050;-80
2023/04/01 13:10:47;;;;;;;0.50;0.50;;;10.90;99.90;;;;;;5095787;28;20368;-81
2023/04/01 13:13:47;;;;;;;0.40;0.40;;;10.90;99.90;;;;;;5095797;28;20048;-80
2023/04/01 13:16:21;;;;;;;;;;;10.90;99.90;;;;;;5095770;28;20048;-80
2023/04/01 13:19:04;;;;;;;0.70;0.70;;;10.80;99.90;;;;;;5095333;28;19919;-80
2023/04/01 13:21:48;;;;;;;0.40;0.40;;;10.80;99.90;;;;;;5095656;28;20036;-81
2023/04/01 13:24:41;;;;;;;0.50;0.50;;;10.80;99.90;;;;;;5095388;28;20044;-81
2023/04/01 13:27:29;;;;;;;0.50;0.50;;;10.80;99.90;;;;;;5078383;28;20043;-81
2023/04/01 13:30:13;;;;;;;0.40;0.40;;;10.80;99.90;;;;;;5078531;28;20039;-81
2023/04/01 13:32:51;;;;;;;0.40;0.40;;;10.80;99.90;;;;;;5095488;28;20083;-80
2023/04/01 13:35:43;;;;;;;0.43;0.43;;;10.70;99.90;;;;;;5095048;28;20054;-81
2023/04/01 13:38:20;;;;;;;0.30;0.30;;;10.80;99.90;;;;;;5096172;28;20052;-80
2023/04/01 13:41:05;;;;;;;0.40;0.40;;;10.80;99.90;;;;;;5096002;28;20074;-80